Tiempo atmosférico en la estación meteorológica de Vallehermoso, Dama, Santa Cruz de Tenerife (190 m.)



Fecha
DESCASC
Temp. máxima en grados centígrados (hora)
DESCASC
Temp. mínima en grados centígrados (hora)
DESCASC
Temp. media en grados centígrados
DESCASC
Racha de viento máxima en m/sg (hora)
DESCASC
Velocidad máxima media en intervalos de 10 minutos(hora)
DESCASC
Precipitaciones diarias en mm
DESCASC
Precipitaciones de 00:00 a 06:00 en mm
DESCASC
Precipitaciones de 06:00 a 12:00 en mm
DESCASC
Precipitaciones de 12:00 a 18:00 en mm
DESCASC
Precipitaciones de 18:00 a 24:00 en mm
DESCASC
16-01-2020 21.3 (11:00) 11.3 (05:00) 16.3 8.89 (17:20) 5.28 (12:20) 0 0 0 0 0
15-01-2020 21.2 (14:10) 15.1 (06:10) 18.2 10 (12:30) 6.11 (12:30) 0 0 0 0 0
14-01-2020 21 (14:40) 16.1 (22:50) 18.6 11.11 (11:40) 6.67 (04:40) 0 0 0 0 0
13-01-2020 23 (14:30) 11.1 (07:50) 17.1 9.72 (15:40) 5.83 (15:20) 0 0 0 0 0
12-01-2020 23.1 (15:10) 11.9 (06:20) 17.5 7.5 (12:00) 4.17 (12:00) 0 0 0 0 0
11-01-2020 22.1 (14:10) 14.2 (00:00) 18.2 4.72 (15:30) 3.33 (15:30) 0 0 0 0 0
10-01-2020 23.2 (13:50) 14.2 (00:00) 18.7 8.33 (02:50) 3.89 (01:50) 0 0 0 0 0
09-01-2020 24.2 (14:40) 13.4 (00:00) 18.8 12.22 (18:50) 5 (17:30) 0 0 0 0 0
08-01-2020 24 (13:40) 13.2 (00:00) 18.6 10.28 (23:10) 4.44 (05:10) 0 0 0 0 0
07-01-2020 23.5 (15:10) 15.3 (00:00) 19.4 12.22 (01:40) 6.39 (01:30) 0 0 0 0 0
06-01-2020 23.1 (14:10) 12.9 (00:00) 18 16.11 (17:50) 7.22 (17:50) 0 0 0 0 0
05-01-2020 21.7 (15:00) 12.8 (00:00) 17.3 8.33 (12:00) 5.28 (12:00) 0 0 0 0 0
04-01-2020 22.4 (15:00) 12.8 (00:00) 17.6 13.89 (13:40) 7.5 (13:30) 0 0 0 0 0
03-01-2020 20.3 (13:50) 11.7 (00:00) 16 14.72 (06:00) 8.06 (12:10) 0 0 0 0 0
02-01-2020 20 (12:20) 12 (00:00) 16 14.44 (10:00) 8.06 (10:00) 0 0 0 0 0
01-01-2020 20.8 (11:50) 13.3 (00:00) 17 15.83 (14:40) 8.89 (12:10) 0 0 0 0 0
31-12-2019 24.2 (15:00) 12.8 (00:00) 18.5 6.94 (16:40) 3.33 (12:20) 0 0 0 0 0
30-12-2019 -- (--) -- (--) -- -- (--) -- (--) -- 0 0 -- 0
29-12-2019 26.3 (12:20) 15.1 (00:00) 20.7 12.22 (04:50) 6.67 (05:30) 0 0 0 0 0
28-12-2019 27.1 (14:40) 14.3 (00:00) 20.7 9.44 (13:20) 5.56 (14:10) 0 0 0 0 0
27-12-2019 27.4 (13:40) 13.3 (00:00) 20.3 11.11 (13:00) 5.56 (13:00) 0 0 0 0 0
26-12-2019 27 (14:50) 15.4 (00:00) 21.2 4.17 (14:00) 2.78 (14:00) 0 0 0 0 0
25-12-2019 25.9 (14:30) 16.2 (00:00) 21.1 11.11 (10:40) 7.22 (10:40) 0 0 0 0 0
24-12-2019 26.8 (14:00) 14.1 (02:50) 20.4 13.33 (11:50) 8.06 (07:10) 0 0 0 0 0
23-12-2019 22.8 (16:00) 15.1 (00:00) 18.9 6.39 (11:00) 3.89 (11:10) 0 0 0 0 0
22-12-2019 24.5 (14:30) 15 (22:20) 19.8 5 (11:20) 2.78 (12:10) 0 0 0 0 0
21-12-2019 24.3 (13:40) 13.2 (05:20) 18.7 5 (17:40) 3.33 (17:30) 0 0 0 0 0
20-12-2019 25.1 (12:40) 15.2 (00:00) 20.2 7.5 (19:40) 3.89 (19:30) 0 0 0 0 0

Gráficas

Temp. máximas Temp. mínimas Temp. medias Precipitaciones Rachas de viento máximas Velocidades máximas media en intervalos de 10 minutos

Datos horarios

Fecha y hora oficial Temperatura (ºC) Velocidad del viento (km/h) Dirección del viento Racha (km/h) Dirección de racha Precipitación (mm) Presión (hPa) Tendencia (hPa) Humedad (%)
2020-01-18 23:00:00 13.6 2 Sudeste 5 Nordeste 0 -- -- 57
2020-01-18 22:00:00 13.8 3 Nordeste 6 Nordeste 0 -- -- 60
2020-01-18 21:00:00 14.7 5 Nordeste 8 Norte 0 -- -- 59
2020-01-18 20:00:00 16 4 Nordeste 8 Norte 0 -- -- 64
2020-01-18 19:00:00 18 3 Noroeste 11 Norte 0 -- -- 50
2020-01-18 18:00:00 20.4 8 Noroeste 15 Noroeste 0 -- -- 42
2020-01-18 17:00:00 22.8 11 Noroeste 18 Noroeste 0 -- -- 38
2020-01-18 16:00:00 23.3 10 Noroeste 29 Sudeste 0 -- -- 44
2020-01-18 15:00:00 22.3 18 Sur 39 Sur 0 -- -- 39
2020-01-18 14:00:00 23.4 18 Sur 40 Sudeste 0 -- -- 23
2020-01-18 13:00:00 23.5 16 Sur 38 Sudeste 0 -- -- 24
2020-01-18 12:00:00 22.9 17 Sur 34 Sudeste 0 -- -- 24
2020-01-18 11:00:00 22.1 12 Sur 31 Sur 0 -- -- 26
2020-01-18 10:00:00 20 16 Sur 34 Sudeste 0 -- -- 27
2020-01-18 09:00:00 15.2 8 Sur 17 Sudeste 0 -- -- 67
2020-01-18 08:00:00 12.6 4 Sur 11 Sur 0 -- -- 85
2020-01-18 07:00:00 12.8 7 Sudeste 12 Sudeste 0 -- -- 74
2020-01-18 06:00:00 11 2 Sur 5 Sudeste 0 -- -- 46
2020-01-18 05:00:00 11.2 2 Norte 8 Norte 0 -- -- 48
2020-01-18 04:00:00 11.3 5 Norte 10 Nordeste 0 -- -- 52
2020-01-18 03:00:00 11.4 6 Nordeste 10 Nordeste 0 -- -- 54
2020-01-18 02:00:00 12.2 5 Norte 12 Nordeste 0 -- -- 53
2020-01-18 01:00:00 12.4 3 Norte 10 Nordeste 0 -- -- 73
2020-01-18 00:00:00 13.3 3 Este 9 Sudeste 0 -- -- 77
2020-01-17 23:00:00 14 8 Este 10 Este 0 -- -- 75
2020-01-17 22:00:00 14.2 7 Este 10 Este 0 -- -- 79
2020-01-17 21:00:00 14.3 5 Sudeste 6 Sudeste 0 -- -- 80
2020-01-17 20:00:00 15.6 0 Calma 6 Oeste 0 -- -- 74
2020-01-17 19:00:00 17.1 3 Sudoeste 12 Oeste 0 -- -- 67
2020-01-17 18:00:00 19.1 3 Noroeste 15 Oeste 0 -- -- 58
2020-01-17 17:00:00 21 10 Noroeste 28 Sur 0 -- -- 52
2020-01-17 16:00:00 20.4 18 Sur 41 Sur 0 -- -- 43
2020-01-17 15:00:00 20.5 27 Sur 45 Sur 0 -- -- 46
2020-01-17 14:00:00 20.7 23 Sur 41 Sur 0 -- -- 43
2020-01-17 13:00:00 20.5 23 Sur 42 Sur 0 -- -- 44
2020-01-17 12:00:00 19.9 21 Sur 32 Sudeste 0 -- -- 49
2020-01-17 11:00:00 20.7 7 Sur 12 Sur 0 -- -- 46
2020-01-17 10:00:00 18.7 4 Sur 7 Sudoeste 0 -- -- 46
2020-01-17 09:00:00 13.7 4 Sudeste 6 Sur 0 -- -- 58
2020-01-17 08:00:00 11.8 5 Sudeste 11 Este 0 -- -- 58
2020-01-17 07:00:00 10.8 4 Este 8 Este 0 -- -- 64
2020-01-17 06:00:00 11.6 5 Nordeste 13 Nordeste 0 -- -- 59
2020-01-17 05:00:00 11.5 9 Nordeste 13 Nordeste 0 -- -- 59
2020-01-17 04:00:00 11.2 6 Nordeste 8 Este 0 -- -- 66
2020-01-17 03:00:00 11.7 5 Nordeste 8 Este 0 -- -- 82
2020-01-17 02:00:00 12.3 3 Este 5 Este 0 -- -- 85
2020-01-17 01:00:00 13 4 Este 6 Este 0 -- -- 82
2020-01-17 00:00:00 13.2 3 Este 5 Este 0 -- -- 81
2020-01-16 23:00:00 14 4 Nordeste 9 Noroeste 0 -- -- 77
2020-01-16 22:00:00 14.9 4 Noroeste 10 Noroeste 0 -- -- 73
2020-01-16 21:00:00 14.9 4 Noroeste 9 Norte 0 -- -- 75
2020-01-16 20:00:00 16.8 5 Sur 15 Sur 0 -- -- 66
2020-01-16 19:00:00 17.4 7 Sudeste 25 Sur 0 -- -- 65
2020-01-16 18:00:00 18 15 Sur 32 Sur 0 -- -- 62
2020-01-16 17:00:00 19.1 17 Sur 31 Sur 0 -- -- 58
2020-01-16 16:00:00 20.3 10 Sur 23 Sur 0 -- -- 58
2020-01-16 15:00:00 20.6 11 Sur 26 Sur 0 -- -- 51
2020-01-16 14:00:00 20.7 13 Sur 31 Sudeste 0 -- -- 47
2020-01-16 13:00:00 20.3 16 Sur 30 Sudeste 0 -- -- 43
2020-01-16 12:00:00 20.4 17 Sur 27 Sur 0 -- -- 41
2020-01-16 11:00:00 21.3 6 Sur 15 Sur 0 -- -- 42
2020-01-16 10:00:00 18 3 Noroeste 6 Noroeste 0 -- -- 41
2020-01-16 09:00:00 12.7 3 Este 5 Nordeste 0 -- -- 48
2020-01-16 08:00:00 11.9 2 Sudeste 10 Sudeste 0 -- -- 41
2020-01-16 07:00:00 12.8 4 Sudeste 13 Sudeste 0 -- -- 38
2020-01-16 06:00:00 12 4 Este 8 Sudeste 0 -- -- 44
2020-01-16 05:00:00 11.3 3 Este 10 Norte 0 -- -- 53
2020-01-16 04:00:00 12.3 6 Norte 12 Este 0 -- -- 43
2020-01-16 03:00:00 14 6 Este 13 Este 0 -- -- 34
2020-01-16 02:00:00 15 8 Sudeste 18 Sudeste 0 -- -- 33
2020-01-16 01:00:00 15.9 11 Sudeste 21 Este 0 -- -- 31
2020-01-16 00:00:00 16.2 10 Sudeste 29 Sudeste 0 -- -- 33
2020-01-15 23:00:00 16.2 14 Sudeste 26 Sudeste 0 -- -- 39
2020-01-15 22:00:00 16.1 14 Sudeste 25 Sudeste 0 -- -- 54
2020-01-15 21:00:00 16.2 14 Sudeste 22 Sudeste 0 -- -- 63
2020-01-15 20:00:00 16.4 13 Sur 24 Sudeste 0 -- -- 61
2020-01-15 19:00:00 17.1 13 Sudeste 30 Sudeste 0 -- -- 59
2020-01-15 18:00:00 18.1 17 Sur 31 Sudeste 0 -- -- 56
2020-01-15 17:00:00 19.5 19 Sur 32 Sur 0 -- -- 47
2020-01-15 16:00:00 20.5 17 Sur 33 Sur 0 -- -- 42
2020-01-15 15:00:00 21.2 17 Sur 27 Sur 0 -- -- 38
2020-01-15 14:00:00 21.1 15 Sur 31 Sur 0 -- -- 43
2020-01-15 13:00:00 20.7 17 Sur 36 Sudeste 0 -- -- 45
2020-01-15 12:00:00 20.3 17 Sudeste 32 Sur 0 -- -- 53
2020-01-15 11:00:00 19.8 15 Sudeste 31 Sudeste 0 -- -- 51
2020-01-15 10:00:00 18.7 9 Sudeste 23 Sudeste 0 -- -- 37
2020-01-15 09:00:00 16.8 12 Sudeste 27 Sudeste 0 -- -- 41
2020-01-15 08:00:00 16.3 15 Este 31 Este 0 -- -- 42
2020-01-15 07:00:00 15.9 11 Sudeste 25 Sudeste 0 -- -- 42
2020-01-15 06:00:00 15.2 8 Sudeste 23 Sudeste 0 -- -- 47
2020-01-15 05:00:00 15.9 11 Sudeste 25 Sudeste 0 -- -- 48
2020-01-15 04:00:00 16.2 12 Este 30 Sudeste 0 -- -- 37
2020-01-15 03:00:00 15.7 10 Sudeste 26 Sudeste 0 -- -- 32
2020-01-15 02:00:00 15.6 11 Sudeste 25 Sur 0 -- -- 42
2020-01-15 01:00:00 15.8 16 Sur 31 Sudeste 0 -- -- 63
2020-01-15 00:00:00 16.1 19 Sur 33 Sudeste 0 -- -- 60
2020-01-14 23:00:00 16.1 17 Sur 27 Sudeste 0 -- -- 59
2020-01-14 22:00:00 16.3 17 Sudeste 29 Sudeste 0 -- -- 57
2020-01-14 21:00:00 16.2 13 Sur 26 Sur 0 -- -- 55
2020-01-14 20:00:00 16.7 17 Sur 33 Sur 0 -- -- 64
2020-01-14 19:00:00 17.3 20 Sur 33 Sur 0 -- -- 63
2020-01-14 18:00:00 18.3 17 Sur 31 Sudeste 0 -- -- 51
2020-01-14 17:00:00 19.8 16 Sur 30 Sur 0 -- -- 51
2020-01-14 16:00:00 20.6 18 Sur 30 Sur 0 -- -- 51
2020-01-14 15:00:00 20.9 18 Sur 32 Sur 0 -- -- 50
2020-01-14 14:00:00 20.8 18 Sur 35 Sur 0 -- -- 53
2020-01-14 13:00:00 20.6 21 Sur 37 Sur 0 -- -- 53
2020-01-14 12:00:00 20.2 23 Sur 40 Sur 0 -- -- 53
2020-01-14 11:00:00 19.8 22 Sur 38 Sur 0 -- -- 55
2020-01-14 10:00:00 18.9 17 Sudeste 35 Sudeste 0 -- -- 66
2020-01-14 09:00:00 17.5 19 Sudeste 33 Este 0 -- -- 71
2020-01-14 08:00:00 16.9 17 Sudeste 33 Sudeste 0 -- -- 68
2020-01-14 07:00:00 17.3 20 Sudeste 36 Sudeste 0 -- -- 54
2020-01-14 06:00:00 17.9 20 Sudeste 36 Sudeste 0 -- -- 37
2020-01-14 05:00:00 18.4 20 Sudeste 38 Sudeste 0 -- -- 29
2020-01-14 04:00:00 18.3 18 Sudeste 29 Sudeste 0 -- -- 26
2020-01-14 03:00:00 18.2 13 Sudeste 29 Sudeste 0 -- -- 26
2020-01-14 02:00:00 18.2 17 Sudeste 36 Sudeste 0 -- -- 25
2020-01-14 01:00:00 18.3 18 Sudeste 33 Sudeste 0 -- -- 25
2020-01-14 00:00:00 17.5 13 Sudeste 33 Sur 0 -- -- 41
2020-01-13 23:00:00 17.3 15 Sudeste 31 Sudeste 0 -- -- 53
2020-01-13 22:00:00 17.2 9 Sudeste 24 Sudeste 0 -- -- 53
2020-01-13 21:00:00 17 12 Sudeste 35 Sudeste 0 -- -- 65
2020-01-13 20:00:00 17.3 13 Sudeste 27 Sur 0 -- -- 69
2020-01-13 19:00:00 18.2 12 Sur 26 Sudeste 0 -- -- 57
2020-01-13 18:00:00 19.2 13 Sur 28 Sur 0 -- -- 55
2020-01-13 17:00:00 20.4 15 Sudeste 35 Sudeste 0 -- -- 47
2020-01-13 16:00:00 20.6 19 Sur 35 Sur 0 -- -- 59
2020-01-13 15:00:00 21.1 21 Sur 34 Sur 0 -- -- 54
2020-01-13 14:00:00 22.6 8 Sudoeste 15 Sudoeste 0 -- -- 53
2020-01-13 13:00:00 21.7 8 Sudoeste 15 Sudoeste 0 -- -- 54
2020-01-13 12:00:00 21.1 7 Sur 15 Sur 0 -- -- 55
2020-01-13 11:00:00 20.4 8 Sur 13 Sur 0 -- -- 45
2020-01-13 10:00:00 17.8 2 Sudoeste 5 Este 0 -- -- 55
2020-01-13 09:00:00 13 3 Este 6 Este 0 -- -- 70
2020-01-13 08:00:00 11.1 4 Nordeste 8 Nordeste 0 -- -- 76
2020-01-13 07:00:00 11.4 3 Nordeste 6 Nordeste 0 -- -- 78
2020-01-13 06:00:00 12.2 5 Nordeste 10 Nordeste 0 -- -- 77
2020-01-13 05:00:00 13 8 Nordeste 12 Nordeste 0 -- -- 83
2020-01-13 04:00:00 12.4 5 Nordeste 8 Nordeste 0 -- -- 88
2020-01-13 03:00:00 13.4 3 Este 11 Este 0 -- -- 79
2020-01-13 02:00:00 13.8 9 Este 11 Este 0 -- -- 72
2020-01-13 01:00:00 13.8 3 Este 10 Este 0 -- -- 78
2020-01-13 00:00:00 15.2 6 Nordeste 13 Nordeste 0 -- -- 76
2020-01-12 23:00:00 16.4 7 Sudeste 14 Sudeste 0 -- -- 73
2020-01-12 22:00:00 16.4 5 Este 15 Sudeste 0 -- -- 74
2020-01-12 21:00:00 17.2 0 Calma 10 Oeste 0 -- -- 70
2020-01-12 20:00:00 17.1 5 Norte 10 Norte 0 -- -- 72
2020-01-12 19:00:00 18.2 0 Calma 14 Nordeste 0 -- -- 58
2020-01-12 18:00:00 18.7 7 Sur 22 Sudeste 0 -- -- 64
2020-01-12 17:00:00 21 8 Sudeste 24 Norte 0 -- -- 53
2020-01-12 16:00:00 22.3 12 Noroeste 22 Oeste 0 -- -- 50
2020-01-12 15:00:00 22.7 14 Noroeste 23 Oeste 0 -- -- 54
2020-01-12 14:00:00 22 14 Noroeste 22 Oeste 0 -- -- 54
2020-01-12 13:00:00 19.4 5 Sudoeste 25 Sur 0 -- -- 62
2020-01-12 12:00:00 19.5 15 Sur 27 Sur 0 -- -- 59
2020-01-12 11:00:00 18.7 8 Sur 15 Sur 0 -- -- 62
2020-01-12 10:00:00 18.2 7 Sur 14 Sur 0 -- -- 62
2020-01-12 09:00:00 15.2 5 Sudeste 12 Este 0 -- -- 73
2020-01-12 08:00:00 13.4 3 Nordeste 13 Nordeste 0 -- -- 78
2020-01-12 07:00:00 12.4 7 Nordeste 11 Nordeste 0 -- -- 83
2020-01-12 06:00:00 12 0 Calma 6 Nordeste 0 -- -- 82
2020-01-12 05:00:00 12.8 3 Nordeste 9 Nordeste 0 -- -- 78
2020-01-12 04:00:00 14 0 Calma 15 Nordeste 0 -- -- 73
2020-01-12 03:00:00 14.7 4 Este 10 Nordeste 0 -- -- 71
2020-01-12 02:00:00 14.2 3 Norte 6 Sudeste 0 -- -- 77
2020-01-12 01:00:00 15.5 4 Sudeste 17 Norte 0 -- -- 72
2020-01-12 00:00:00 16.4 7 Norte 15 Norte 0 -- -- 65
2020-01-11 23:00:00 16.5 6 Sur 12 Sur 0 -- -- 67
2020-01-11 22:00:00 16.7 6 Norte 15 Noroeste 0 -- -- 68
2020-01-11 21:00:00 17.1 0 Calma 10 Norte 0 -- -- 66
2020-01-11 20:00:00 17.5 5 Norte 14 Sudeste 0 -- -- 62
2020-01-11 19:00:00 17.9 5 Sur 13 Sudeste 0 -- -- 64
2020-01-11 18:00:00 18.9 5 Sur 9 Sur 0 -- -- 61
2020-01-11 17:00:00 19.6 3 Sur 13 Sur 0 -- -- 60
2020-01-11 16:00:00 20.2 6 Sudoeste 17 Sudoeste 0 -- -- 61
2020-01-11 15:00:00 20.3 9 Sudoeste 15 Sudoeste 0 -- -- 61
2020-01-11 14:00:00 21.8 9 Sudoeste 14 Sudoeste 0 -- -- 59
2020-01-11 13:00:00 20.4 6 Sudoeste 11 Sudoeste 0 -- -- 61
2020-01-11 12:00:00 20.7 8 Sur 12 Sur 0 -- -- 62
2020-01-11 11:00:00 18.1 0 Calma 7 Noroeste 0 -- -- 71
2020-01-11 10:00:00 17.1 0 Calma 8 Este 0 -- -- 80
2020-01-11 09:00:00 15.2 6 Este 10 Este 0 -- -- 82
2020-01-11 08:00:00 14.9 8 Este 12 Este 0 -- -- 83
2020-01-11 07:00:00 15.1 5 Sudeste 14 Sudeste 0 -- -- 85
2020-01-11 06:00:00 15 7 Sudeste 13 Sudeste 0 -- -- 89
2020-01-11 05:00:00 14.3 3 Sudeste 9 Norte 0 -- -- 92
2020-01-11 04:00:00 14.3 5 Nordeste 8 Nordeste 0 -- -- 91
2020-01-11 03:00:00 14.7 5 Este 10 Este 0 -- -- 89
2020-01-11 02:00:00 14.7 6 Este 9 Este 0 -- -- 89
2020-01-11 01:00:00 14.8 7 Este 9 Este 0 -- -- 87
2020-01-11 00:00:00 15 2 Este 8 Sudeste 0 -- -- 88
2020-01-10 23:00:00 15.6 6 Sudeste 9 Sudeste 0 -- -- 85
2020-01-10 22:00:00 16.2 6 Sudeste 9 Este 0 -- -- 82
2020-01-10 21:00:00 16.8 0 Calma 5 Sudoeste 0 -- -- 79
2020-01-10 20:00:00 17.9 0 Calma 9 Sur 0 -- -- 76
2020-01-10 19:00:00 18.7 3 Sur 11 Sudoeste 0 -- -- 72
2020-01-10 18:00:00 20 7 Sudoeste 12 Sudoeste 0 -- -- 66
2020-01-10 17:00:00 21.9 7 Sudoeste 12 Oeste 0 -- -- 60
2020-01-10 16:00:00 22.5 7 Sudoeste 15 Sur 0 -- -- 58
2020-01-10 15:00:00 22.5 7 Sudoeste 11 Sudoeste 0 -- -- 57
2020-01-10 14:00:00 22.7 6 Sudoeste 14 Oeste 0 -- -- 58
2020-01-10 13:00:00 22.4 7 Sudoeste 14 Sudoeste 0 -- -- 59
2020-01-10 12:00:00 22.2 8 Sur 13 Sudoeste 0 -- -- 57
2020-01-10 11:00:00 21.8 6 Sudoeste 14 Oeste 0 -- -- 56
2020-01-10 10:00:00 20.3 4 Sudoeste 14 Sudoeste 0 -- -- 61
2020-01-10 09:00:00 17.4 6 Sudeste 13 Sur 0 -- -- 71
2020-01-10 08:00:00 15.1 8 Sudeste 16 Sudeste 0 -- -- 79
2020-01-10 07:00:00 14.4 4 Nordeste 10 Norte 0 -- -- 80
2020-01-10 06:00:00 15.8 3 Norte 19 Norte 0 -- -- 75
2020-01-10 05:00:00 15.6 7 Sudeste 24 Sur 0 -- -- 71
2020-01-10 04:00:00 16.1 12 Sudeste 21 Sudeste 0 -- -- 68
2020-01-10 03:00:00 16.8 12 Nordeste 30 Noroeste 0 -- -- 61
2020-01-10 02:00:00 16.6 11 Sudoeste 25 Sudoeste 0 -- -- 66
2020-01-10 01:00:00 16 6 Sudeste 20 Este 0 -- -- 66
2020-01-10 00:00:00 16.5 13 Norte 31 Este 0 -- -- 60
2020-01-09 23:00:00 15.3 5 Sudeste 14 Este 0 -- -- 70
2020-01-09 22:00:00 16.7 6 Este 26 Norte 0 -- -- 65
2020-01-09 21:00:00 16.6 3 Nordeste 14 Sudeste 0 -- -- 64
2020-01-09 20:00:00 16.9 6 Este 28 Nordeste 0 -- -- 60
2020-01-09 19:00:00 17.8 18 Nordeste 44 Este 0 -- -- 51
2020-01-09 18:00:00 18.6 15 Nordeste 42 Nordeste 0 -- -- 53
2020-01-09 17:00:00 21.2 12 Este 33 Este 0 -- -- 44
2020-01-09 16:00:00 22.9 7 Sudoeste 19 Oeste 0 -- -- 44
2020-01-09 15:00:00 23.9 13 Oeste 23 Sudoeste 0 -- -- 43
2020-01-09 14:00:00 23.6 10 Oeste 15 Oeste 0 -- -- 45
2020-01-09 13:00:00 23 9 Sudoeste 18 Sudoeste 0 -- -- 45
2020-01-09 12:00:00 23.4 10 Oeste 18 Sudoeste 0 -- -- 46
2020-01-09 11:00:00 21.3 9 Sudoeste 16 Sur 0 -- -- 53
2020-01-09 10:00:00 17.6 4 Oeste 11 Este 0 -- -- 65
2020-01-09 09:00:00 15.4 0 Calma 11 Este 0 -- -- 73
2020-01-09 08:00:00 13.6 4 Oeste 9 Oeste 0 -- -- 77
2020-01-09 07:00:00 14.1 5 Este 13 Este 0 -- -- 74
2020-01-09 06:00:00 14.3 6 Este 14 Este 0 -- -- 73
2020-01-09 05:00:00 14.1 9 Este 16 Sudeste 0 -- -- 73
2020-01-09 04:00:00 13.9 5 Sudeste 11 Este 0 -- -- 73
2020-01-09 03:00:00 14.5 8 Este 13 Este 0 -- -- 69
2020-01-09 02:00:00 15.3 4 Sudeste 14 Oeste 0 -- -- 67
2020-01-09 01:00:00 15.1 6 Oeste 13 Oeste 0 -- -- 64
2020-01-09 00:00:00 15.9 5 Noroeste 37 Este 0 -- -- 59
2020-01-08 23:00:00 15.9 7 Este 18 Sudeste 0 -- -- 56
2020-01-08 22:00:00 15.5 4 Oeste 33 Norte 0 -- -- 63
2020-01-08 21:00:00 16.7 11 Nordeste 29 Norte 0 -- -- 54
2020-01-08 20:00:00 17.2 11 Nordeste 21 Este 0 -- -- 55
2020-01-08 19:00:00 17.5 6 Nordeste 21 Este 0 -- -- 56
2020-01-08 18:00:00 18.9 10 Nordeste 25 Este 0 -- -- 51
2020-01-08 17:00:00 20.6 11 Nordeste 25 Nordeste 0 -- -- 47
2020-01-08 16:00:00 21.1 9 Sur 19 Sur 0 -- -- 57
2020-01-08 15:00:00 22 13 Sudoeste 20 Sudoeste 0 -- -- 55
2020-01-08 14:00:00 23.8 10 Sudoeste 21 Oeste 0 -- -- 50
2020-01-08 13:00:00 22.1 9 Sudoeste 18 Sudoeste 0 -- -- 54
2020-01-08 12:00:00 20.7 8 Sur 22 Sur 0 -- -- 60
2020-01-08 11:00:00 21.5 8 Oeste 15 Sur 0 -- -- 55
2020-01-08 10:00:00 19.5 4 Sudoeste 10 Este 0 -- -- 54
2020-01-08 09:00:00 15.2 5 Sudeste 9 Este 0 -- -- 68
2020-01-08 08:00:00 14 3 Noroeste 13 Sudeste 0 -- -- 65
2020-01-08 07:00:00 15.7 7 Sudeste 21 Sudeste 0 -- -- 57
2020-01-08 06:00:00 16 5 Sur 34 Este 0 -- -- 54
2020-01-08 05:00:00 16.2 13 Este 27 Nordeste 0 -- -- 54
2020-01-08 04:00:00 13.8 4 Sudeste 17 Nordeste 0 -- -- 69
2020-01-08 03:00:00 13.2 5 Nordeste 9 Noroeste 0 -- -- 69
2020-01-08 02:00:00 14 4 Nordeste 15 Este 0 -- -- 62
2020-01-08 01:00:00 15.9 9 Sudeste 21 Este 0 -- -- 60
2020-01-08 00:00:00 16.6 9 Este 28 Este 0 -- -- 52
2020-01-07 23:00:00 15.8 9 Este 19 Nordeste 0 -- -- 52
2020-01-07 22:00:00 16.8 7 Este 30 Este 0 -- -- 55
2020-01-07 21:00:00 17.2 11 Este 21 Nordeste 0 -- -- 59
2020-01-07 20:00:00 17.5 10 Noroeste 16 Noroeste 0 -- -- 65
2020-01-07 19:00:00 18.4 5 Noroeste 19 Sur 0 -- -- 60
2020-01-07 18:00:00 19 9 Sudeste 23 Sudeste 0 -- -- 63
2020-01-07 17:00:00 19.7 12 Sur 27 Sur 0 -- -- 55
2020-01-07 16:00:00 20.9 18 Sur 30 Sur 0 -- -- 58
2020-01-07 15:00:00 23.1 13 Oeste 23 Oeste 0 -- -- 48
2020-01-07 14:00:00 21.2 11 Norte 30 Nordeste 0 -- -- 43
2020-01-07 13:00:00 20.5 7 Sur 26 Sur 0 -- -- 57
2020-01-07 12:00:00 19.8 15 Sur 35 Sur 0 -- -- 54
2020-01-07 11:00:00 21.5 8 Sur 19 Sudoeste 0 -- -- 49
2020-01-07 10:00:00 17.2 7 Nordeste 32 Nordeste 0 -- -- 58
2020-01-07 09:00:00 15.9 5 Nordeste 10 Nordeste 0 -- -- 61
2020-01-07 08:00:00 15.8 6 Este 24 Sudoeste 0 -- -- 57
2020-01-07 07:00:00 16.9 19 Este 41 Este 0 -- -- 50
2020-01-07 06:00:00 16.4 10 Nordeste 30 Nordeste 0 -- -- 47
2020-01-07 05:00:00 17.2 6 Oeste 23 Sudoeste 0 -- -- 60
2020-01-07 04:00:00 17 8 Norte 21 Noroeste 0 -- -- 58
2020-01-07 03:00:00 17 4 Oeste 33 Nordeste 0 -- -- 62
2020-01-07 02:00:00 17 7 Norte 44 Sudeste 0 -- -- 53
2020-01-07 01:00:00 17 15 Este 35 Este 0 -- -- 52
2020-01-07 00:00:00 17.5 6 Nordeste 45 Este 0 -- -- 59
2020-01-06 23:00:00 17.4 8 Norte 29 Noroeste 0 -- -- 64
2020-01-06 22:00:00 17 9 Oeste 22 Sudeste 0 -- -- 58
2020-01-06 21:00:00 17.8 10 Este 51 Este 0 -- -- 52
2020-01-06 20:00:00 17.9 15 Este 52 Este 0 -- -- 47
2020-01-06 19:00:00 18.1 6 Este 45 Nordeste 0 -- -- 49
2020-01-06 18:00:00 19.1 20 Este 58 Nordeste 0 -- -- 46
2020-01-06 17:00:00 21.4 8 Norte 24 Nordeste 0 -- -- 40
2020-01-06 16:00:00 22.5 17 Noroeste 33 Noroeste 0 -- -- 42
2020-01-06 15:00:00 22.7 6 Sur 21 Noroeste 0 -- -- 43
2020-01-06 14:00:00 22.9 12 Sudoeste 18 Sudoeste 0 -- -- 48
2020-01-06 13:00:00 22.8 10 Sudoeste 17 Sudoeste 0 -- -- 49
2020-01-06 12:00:00 21.3 9 Oeste 18 Sudoeste 0 -- -- 56
2020-01-06 11:00:00 19.6 6 Sudoeste 13 Sudoeste 0 -- -- 62
2020-01-06 10:00:00 18.9 2 Sudeste 15 Noroeste 0 -- -- 63
2020-01-06 09:00:00 17.6 4 Norte 13 Oeste 0 -- -- 67